createdAt,value
2017-12-21T00:00:13.953Z,7.27
2017-12-21T00:02:39.846Z,8.10
2017-12-21T00:05:09.550Z,8.13
2017-12-21T00:07:35.441Z,8.35
2017-12-21T00:10:02.782Z,8.57
2017-12-21T00:12:28.726Z,9.40
2017-12-21T00:14:57.713Z,9.77
2017-12-21T00:17:23.583Z,8.38
2017-12-21T00:19:53.368Z,8.40
2017-12-21T00:22:31.452Z,8.23
2017-12-21T00:24:57.291Z,8.27
2017-12-21T00:27:23.133Z,8.43
2017-12-21T00:29:49.060Z,7.77
2017-12-21T00:32:14.896Z,8.63
2017-12-21T00:34:40.753Z,7.33
2017-12-21T00:37:06.625Z,8.83
2017-12-21T00:39:32.534Z,7.53
2017-12-21T00:41:58.399Z,7.47
2017-12-21T00:44:24.274Z,7.90
2017-12-21T00:46:50.161Z,8.00
2017-12-21T00:49:16.043Z,7.77
2017-12-21T00:51:43.200Z,7.97
2017-12-21T00:54:09.036Z,7.70
2017-12-21T00:56:37.959Z,8.90
2017-12-21T00:59:03.830Z,8.60
2017-12-21T01:01:32.720Z,8.13
2017-12-21T01:03:58.624Z,8.40
2017-12-21T01:06:24.455Z,8.27
2017-12-21T01:08:50.368Z,8.80
2017-12-21T01:11:16.231Z,9.40
2017-12-21T01:13:43.796Z,7.87
2017-12-21T01:16:09.648Z,8.57
2017-12-21T01:18:38.199Z,8.37
2017-12-21T01:21:04.033Z,9.45
2017-12-21T01:26:00.888Z,7.72
2017-12-21T01:28:28.333Z,8.60
2017-12-21T01:30:54.182Z,8.65
2017-12-21T01:33:22.543Z,8.00
2017-12-21T01:35:48.447Z,8.50
2017-12-21T01:38:17.368Z,8.93
2017-12-21T01:40:43.294Z,8.85
2017-12-21T01:43:09.181Z,9.60
2017-12-21T01:45:35.074Z,8.97
2017-12-21T01:48:00.980Z,8.87
2017-12-21T01:50:30.685Z,9.07
2017-12-21T01:52:56.542Z,8.50
2017-12-21T01:55:24.284Z,8.50
2017-12-21T01:57:50.168Z,10.25
2017-12-21T02:00:19.958Z,8.27
2017-12-21T02:02:45.858Z,8.45
2017-12-21T02:05:13.490Z,8.77
2017-12-21T02:07:39.347Z,7.57
2017-12-21T02:10:08.974Z,9.10
2017-12-21T02:12:34.830Z,9.27
2017-12-21T02:15:03.020Z,8.73
2017-12-21T02:17:28.959Z,10.07
2017-12-21T02:19:54.879Z,9.33
2017-12-21T02:22:21.600Z,9.57
2017-12-21T02:24:47.444Z,9.10
2017-12-21T02:27:14.896Z,8.00
2017-12-21T02:29:40.755Z,9.80
2017-12-21T02:32:09.645Z,8.80
2017-12-21T02:34:35.486Z,9.15
2017-12-21T02:37:05.380Z,9.00
2017-12-21T02:39:31.271Z,9.38
2017-12-21T02:42:00.202Z,9.43
2017-12-21T02:44:26.049Z,8.00
2017-12-21T02:46:55.149Z,8.40
2017-12-21T02:49:21.054Z,6.90
2017-12-21T02:51:48.832Z,8.33
2017-12-21T02:54:14.765Z,6.87
2017-12-21T02:56:40.609Z,8.50
2017-12-21T02:59:06.490Z,6.83
2017-12-21T03:01:32.363Z,7.50
2017-12-21T03:04:01.482Z,7.80
2017-12-21T03:06:27.411Z,7.40
2017-12-21T03:08:55.189Z,7.73
2017-12-21T03:11:21.085Z,7.57
2017-12-21T03:13:50.170Z,6.30
2017-12-21T03:16:16.061Z,8.60
2017-12-21T03:18:45.784Z,8.83
2017-12-21T03:21:11.702Z,8.50
2017-12-21T03:23:40.625Z,8.30
2017-12-21T03:26:06.494Z,7.95
2017-12-21T03:28:35.425Z,7.80
2017-12-21T03:31:01.284Z,7.60
2017-12-21T03:33:27.133Z,6.80
2017-12-21T03:35:52.986Z,7.13
2017-12-21T03:38:18.832Z,7.23
2017-12-21T03:40:45.399Z,7.30
2017-12-21T03:43:11.250Z,6.32
2017-12-21T03:45:40.246Z,8.23
2017-12-21T03:48:06.111Z,8.52
2017-12-21T03:50:35.681Z,6.87
2017-12-21T03:53:01.562Z,6.60
2017-12-21T03:55:30.569Z,6.27
2017-12-21T03:57:56.443Z,5.95
2017-12-21T04:00:25.247Z,6.67
2017-12-21T04:02:51.149Z,4.75
2017-12-21T04:05:19.950Z,5.83
2017-12-21T04:07:45.827Z,5.25
2017-12-21T04:10:11.653Z,5.40
2017-12-21T04:12:37.501Z,4.63
2017-12-21T04:15:03.348Z,6.70
2017-12-21T04:17:30.511Z,4.77
2017-12-21T04:19:56.378Z,6.40
2017-12-21T04:22:25.893Z,6.63
2017-12-21T04:24:51.749Z,7.30
2017-12-21T04:27:19.873Z,5.63
2017-12-21T04:29:45.727Z,5.12
2017-12-21T04:32:14.378Z,5.60
2017-12-21T04:34:40.252Z,4.53
2017-12-21T04:39:37.009Z,5.57
2017-12-21T04:42:04.531Z,5.80
2017-12-21T04:44:30.462Z,6.70
2017-12-21T04:46:56.335Z,6.57
2017-12-21T04:49:22.202Z,5.97
2017-12-21T04:51:48.063Z,6.77
2017-12-21T04:54:16.699Z,6.10
2017-12-21T04:56:42.574Z,6.12
2017-12-21T04:59:11.492Z,5.73
2017-12-21T05:01:37.371Z,5.95
2017-12-21T05:04:06.255Z,6.07
2017-12-21T05:06:32.129Z,5.47
2017-12-21T05:09:00.878Z,6.93
2017-12-21T05:11:26.770Z,6.62
2017-12-21T05:13:59.119Z,6.23
2017-12-21T05:16:24.980Z,6.28
2017-12-21T05:18:50.916Z,6.67
2017-12-21T05:21:16.771Z,6.70
2017-12-21T05:23:42.676Z,8.90
2017-12-21T05:26:08.528Z,9.43
2017-12-21T05:28:34.418Z,7.60
2017-12-21T05:31:01.757Z,7.23
2017-12-21T05:33:27.610Z,6.40
2017-12-21T05:35:56.468Z,6.33
2017-12-21T05:38:22.270Z,6.10
2017-12-21T05:40:52.132Z,6.20
2017-12-21T05:43:18.017Z,6.25
2017-12-21T05:45:46.920Z,5.43
2017-12-21T05:48:12.798Z,6.30
2017-12-21T05:50:41.845Z,7.03
2017-12-21T05:53:07.758Z,4.57
2017-12-21T05:55:35.517Z,5.80
2017-12-21T05:58:01.370Z,6.65
2017-12-21T06:00:27.318Z,6.00
2017-12-21T06:02:53.252Z,7.73
2017-12-21T06:05:19.105Z,9.97
2017-12-21T06:07:46.811Z,6.83
2017-12-21T06:10:12.731Z,7.22
2017-12-21T06:12:41.699Z,6.33
2017-12-21T06:15:07.544Z,6.97
2017-12-21T06:17:36.709Z,7.10
2017-12-21T06:20:02.644Z,7.43
2017-12-21T06:22:32.413Z,7.37
2017-12-21T06:24:58.284Z,6.03
2017-12-21T06:27:26.054Z,7.43
2017-12-21T06:29:51.896Z,6.95
2017-12-21T06:32:21.734Z,7.27
2017-12-21T06:34:47.595Z,7.72
2017-12-21T06:37:13.442Z,7.30
2017-12-21T06:39:39.491Z,7.50
2017-12-21T06:42:05.282Z,8.07
2017-12-21T06:44:32.474Z,7.60
2017-12-21T06:46:58.341Z,6.40
2017-12-21T06:49:27.197Z,7.90
2017-12-21T06:51:53.044Z,8.63
2017-12-21T06:54:22.124Z,6.70
2017-12-21T06:56:47.972Z,7.30
2017-12-21T06:59:16.867Z,8.03
2017-12-21T07:01:42.708Z,7.85
2017-12-21T07:04:12.537Z,7.50
2017-12-21T07:06:38.408Z,7.30
2017-12-21T07:09:07.374Z,8.37
2017-12-21T07:11:33.201Z,7.90
2017-12-21T07:13:59.008Z,8.37
2017-12-21T07:16:24.850Z,7.67
2017-12-21T07:18:50.657Z,7.63
2017-12-21T07:21:17.164Z,6.23
2017-12-21T07:23:43.000Z,6.72
2017-12-21T07:26:12.326Z,6.83
2017-12-21T07:28:38.169Z,7.30
2017-12-21T07:31:08.020Z,6.90
2017-12-21T07:33:33.821Z,6.97
2017-12-21T07:36:01.676Z,6.93
2017-12-21T07:38:27.507Z,7.90
2017-12-21T07:40:57.252Z,7.07
2017-12-21T07:43:23.119Z,7.93
2017-12-21T07:45:51.834Z,7.67
2017-12-21T07:48:17.655Z,7.25
2017-12-21T07:50:43.459Z,7.63
2017-12-21T07:53:09.344Z,7.30
2017-12-21T07:55:35.206Z,6.10
2017-12-21T07:58:02.738Z,6.40
2017-12-21T08:00:28.547Z,6.90
2017-12-21T08:02:57.493Z,7.70
2017-12-21T08:05:23.336Z,6.82
2017-12-21T08:07:53.317Z,6.23
2017-12-21T08:10:19.147Z,6.93
2017-12-21T08:12:48.122Z,7.03
2017-12-21T08:15:13.935Z,6.40
2017-12-21T08:17:43.016Z,6.20
2017-12-21T08:20:08.875Z,6.93
2017-12-21T08:22:36.635Z,6.23
2017-12-21T08:25:02.513Z,7.40
2017-12-21T08:27:28.350Z,10.87
2017-12-21T08:29:54.163Z,10.17
2017-12-21T08:32:20.024Z,8.00
2017-12-21T08:34:47.892Z,7.60
2017-12-21T08:37:13.710Z,7.75
2017-12-21T08:39:43.104Z,7.33
2017-12-21T08:42:08.972Z,9.02
2017-12-21T08:44:38.597Z,7.40
2017-12-21T08:47:04.432Z,7.00
2017-12-21T08:49:32.218Z,6.37
2017-12-21T08:51:58.077Z,7.28
2017-12-21T08:54:27.876Z,6.93
2017-12-21T08:56:53.760Z,6.80
2017-12-21T08:59:21.538Z,6.53
2017-12-21T09:01:47.344Z,6.75
2017-12-21T09:04:13.207Z,5.70
2017-12-21T09:06:39.058Z,6.53
2017-12-21T09:09:04.917Z,4.90
2017-12-21T09:11:33.833Z,5.03
2017-12-21T09:13:59.681Z,5.05
2017-12-21T09:16:29.384Z,5.43
2017-12-21T09:18:55.203Z,4.97
2017-12-21T09:21:23.440Z,6.30
2017-12-21T09:23:49.281Z,5.80
2017-12-21T09:26:17.524Z,5.40
2017-12-21T09:28:43.364Z,5.80
2017-12-21T09:31:12.429Z,6.07
2017-12-21T09:33:38.307Z,6.43
2017-12-21T09:36:08.087Z,5.60
2017-12-21T09:38:33.928Z,5.03
2017-12-21T09:40:59.850Z,5.87
2017-12-21T09:43:25.670Z,5.80
2017-12-21T09:45:51.556Z,5.43
2017-12-21T09:48:19.239Z,5.63
2017-12-21T09:50:45.080Z,5.25
2017-12-21T09:53:13.018Z,5.07
2017-12-21T09:55:38.866Z,5.18
2017-12-21T09:58:07.878Z,5.80
2017-12-21T10:00:33.748Z,4.10
2017-12-21T10:03:03.244Z,4.30
2017-12-21T10:05:29.103Z,5.10
2017-12-21T10:07:58.527Z,5.10
2017-12-21T10:10:24.330Z,4.03
2017-12-21T10:12:52.044Z,4.50
2017-12-21T10:15:17.853Z,4.15
2017-12-21T10:17:43.695Z,5.60
2017-12-21T10:20:09.529Z,4.30
2017-12-21T10:22:35.358Z,5.00
2017-12-21T10:25:04.539Z,4.33
2017-12-21T10:29:54.926Z,4.55
2017-12-21T10:32:20.782Z,4.77
2017-12-21T10:34:46.622Z,4.73
2017-12-21T10:37:12.521Z,5.23
2017-12-21T10:39:38.378Z,5.53
2017-12-21T10:42:04.241Z,5.67
2017-12-21T10:44:33.846Z,4.67
2017-12-21T10:46:59.726Z,4.87
2017-12-21T10:49:25.629Z,4.47
2017-12-21T10:51:51.501Z,5.43
2017-12-21T10:54:17.358Z,4.07
2017-12-21T10:56:44.941Z,6.10
2017-12-21T10:59:10.818Z,5.78
2017-12-21T11:01:40.351Z,4.97
2017-12-21T11:04:06.198Z,4.50
2017-12-21T11:06:35.221Z,4.43
2017-12-21T11:09:01.163Z,3.12
2017-12-21T11:11:30.067Z,2.73
2017-12-21T11:13:55.975Z,3.65
2017-12-21T11:16:23.168Z,4.00
2017-12-21T11:18:49.080Z,3.92
2017-12-21T11:21:17.742Z,3.70
2017-12-21T11:23:43.619Z,3.90
2017-12-21T11:26:09.628Z,4.13
2017-12-21T11:28:35.592Z,4.15
2017-12-21T11:31:02.795Z,3.87
2017-12-21T11:33:29.921Z,4.00
2017-12-21T11:35:55.753Z,3.83
2017-12-21T11:38:25.264Z,3.50
2017-12-21T11:40:51.131Z,4.03
2017-12-21T11:43:20.122Z,4.27
2017-12-21T11:45:45.998Z,4.10
2017-12-21T11:48:15.190Z,4.20
2017-12-21T11:50:41.045Z,4.40
2017-12-21T11:53:19.827Z,4.67
2017-12-21T11:55:46.319Z,4.80
2017-12-21T11:58:12.234Z,3.87
2017-12-21T12:00:38.102Z,4.33
2017-12-21T12:03:03.995Z,4.87
2017-12-21T12:05:29.883Z,3.93
2017-12-21T12:07:55.787Z,5.07
2017-12-21T12:10:21.671Z,4.90
2017-12-21T12:12:47.530Z,5.50
2017-12-21T12:15:19.856Z,5.50
2017-12-21T12:17:45.762Z,4.25
2017-12-21T12:20:11.662Z,3.80
2017-12-21T12:22:37.558Z,2.80
2017-12-21T12:25:03.431Z,1.73
2017-12-21T12:27:29.298Z,1.50
2017-12-21T12:29:55.160Z,1.97
2017-12-21T12:32:21.034Z,1.90
2017-12-21T12:34:49.956Z,2.27
2017-12-21T12:40:22.853Z,2.70
2017-12-21T12:42:48.763Z,2.40
2017-12-21T12:45:14.671Z,2.13
2017-12-21T12:47:40.532Z,2.03
2017-12-21T12:50:06.408Z,1.47
2017-12-21T12:52:32.331Z,1.50
2017-12-21T12:54:58.214Z,0.97
2017-12-21T12:57:24.098Z,1.03
2017-12-21T12:59:50.778Z,0.60
2017-12-21T13:02:25.407Z,1.37
2017-12-21T13:04:51.275Z,1.27
2017-12-21T13:07:17.221Z,0.90
2017-12-21T13:09:43.077Z,0.90
2017-12-21T13:12:08.968Z,0.70
2017-12-21T13:14:34.833Z,0.80
2017-12-21T13:17:00.669Z,1.20
2017-12-21T13:19:26.575Z,1.17
2017-12-21T13:21:52.444Z,0.77
2017-12-21T13:24:25.871Z,1.30
2017-12-21T13:26:51.760Z,0.80
2017-12-21T13:29:17.614Z,0.67
2017-12-21T13:31:43.493Z,0.87
2017-12-21T13:34:09.324Z,1.43
2017-12-21T13:36:35.189Z,1.53
2017-12-21T13:39:01.574Z,1.20
2017-12-21T13:41:27.493Z,7.18
2017-12-21T13:43:53.320Z,1.47
2017-12-21T13:46:41.388Z,1.70
2017-12-21T13:49:07.699Z,0.90
2017-12-21T13:51:33.599Z,1.08
2017-12-21T13:53:59.490Z,1.63
2017-12-21T13:56:25.366Z,1.10
2017-12-21T13:58:51.529Z,2.33
2017-12-21T14:01:17.432Z,1.50
2017-12-21T14:03:43.336Z,1.20
2017-12-21T14:06:09.193Z,1.47
2017-12-21T14:08:36.923Z,1.00
2017-12-21T14:11:02.843Z,1.10
2017-12-21T14:13:28.765Z,1.07
2017-12-21T14:15:54.652Z,1.10
2017-12-21T14:18:20.493Z,1.43
2017-12-21T14:20:46.401Z,1.57
2017-12-21T14:23:12.679Z,1.27
2017-12-21T14:25:38.618Z,1.00
2017-12-21T14:28:19.013Z,0.80
2017-12-21T14:30:44.918Z,1.15
2017-12-21T14:33:10.805Z,0.80
2017-12-21T14:35:36.664Z,1.63
2017-12-21T14:38:02.529Z,0.63
2017-12-21T14:40:28.422Z,0.97
2017-12-21T14:42:54.299Z,0.80
2017-12-21T14:45:20.219Z,0.70
2017-12-21T14:47:46.252Z,0.83
2017-12-21T14:50:22.311Z,0.90
2017-12-21T14:52:48.198Z,1.10
2017-12-21T14:55:14.068Z,1.03
2017-12-21T14:57:39.941Z,0.90
2017-12-21T15:00:05.857Z,0.80
2017-12-21T15:02:31.690Z,1.33
2017-12-21T15:04:57.621Z,1.10
2017-12-21T15:07:23.627Z,1.00
2017-12-21T15:09:49.472Z,0.80
2017-12-21T15:12:24.196Z,0.77
2017-12-21T15:14:50.048Z,1.60
2017-12-21T15:17:15.983Z,2.40
2017-12-21T15:19:41.850Z,1.80
2017-12-21T15:22:07.700Z,1.30
2017-12-21T15:24:33.639Z,3.20
2017-12-21T15:26:59.484Z,2.73
2017-12-21T15:29:25.309Z,2.90
2017-12-21T15:31:51.184Z,2.83
2017-12-21T15:34:17.070Z,3.57
2017-12-21T15:36:42.930Z,5.77
2017-12-21T15:39:09.611Z,17.67
2017-12-21T15:41:35.554Z,10.82
2017-12-21T15:44:01.430Z,5.90
2017-12-21T15:46:27.279Z,5.30
2017-12-21T15:48:53.148Z,8.67
2017-12-21T15:51:19.090Z,4.00
2017-12-21T15:54:00.438Z,2.67
2017-12-21T15:56:26.301Z,2.22
2017-12-21T15:58:52.211Z,1.80
2017-12-21T16:01:18.089Z,1.87
2017-12-21T16:03:43.998Z,1.10
2017-12-21T16:06:09.885Z,1.00
2017-12-21T16:08:35.794Z,1.00
2017-12-21T16:11:01.721Z,1.30
2017-12-21T16:13:27.605Z,1.43
2017-12-21T16:15:53.507Z,1.30
2017-12-21T16:18:19.436Z,1.43
2017-12-21T16:20:45.329Z,2.40
2017-12-21T16:23:11.228Z,1.30
2017-12-21T16:25:37.104Z,2.10
2017-12-21T16:28:02.949Z,2.50
2017-12-21T16:30:28.857Z,3.30
2017-12-21T16:32:54.769Z,3.80
2017-12-21T16:35:22.797Z,4.30
2017-12-21T16:37:48.661Z,4.55
2017-12-21T16:40:14.783Z,4.10
2017-12-21T16:42:40.663Z,4.18
2017-12-21T16:45:06.522Z,2.70
2017-12-21T16:47:32.477Z,1.80
2017-12-21T16:49:58.329Z,1.37
2017-12-21T16:52:24.227Z,1.40
2017-12-21T16:54:50.096Z,1.60
2017-12-21T16:57:16.218Z,1.20
2017-12-21T16:59:42.125Z,1.55
2017-12-21T17:02:08.019Z,1.40
2017-12-21T17:04:33.945Z,1.17
2017-12-21T17:06:59.806Z,1.47
2017-12-21T17:09:25.723Z,1.20
2017-12-21T17:11:51.634Z,5.83
2017-12-21T17:14:17.532Z,1.50
2017-12-21T17:16:43.407Z,1.07
2017-12-21T17:19:12.734Z,1.30
2017-12-21T17:21:38.627Z,0.88
2017-12-21T17:24:04.598Z,1.23
2017-12-21T17:26:30.529Z,1.00
2017-12-21T17:28:56.432Z,1.37
2017-12-21T17:31:22.348Z,1.43
2017-12-21T17:33:48.304Z,1.83
2017-12-21T17:36:14.201Z,1.63
2017-12-21T17:38:40.087Z,1.73
2017-12-21T17:41:12.816Z,1.90
2017-12-21T17:43:40.515Z,1.27
2017-12-21T17:46:06.488Z,1.20
2017-12-21T17:48:32.378Z,1.60
2017-12-21T17:50:58.338Z,1.30
2017-12-21T17:53:24.269Z,1.83
2017-12-21T17:55:50.178Z,1.80
2017-12-21T17:58:16.057Z,2.30
2017-12-21T18:00:42.113Z,2.00
2017-12-21T18:03:08.072Z,2.50
2017-12-21T18:05:37.975Z,1.70
2017-12-21T18:08:03.874Z,2.20
2017-12-21T18:10:29.759Z,6.30
2017-12-21T18:12:55.628Z,7.93
2017-12-21T18:15:21.530Z,5.90
2017-12-21T18:17:48.087Z,8.00
2017-12-21T18:20:14.002Z,7.93
2017-12-21T18:22:42.913Z,9.03
2017-12-21T18:25:08.910Z,8.77
2017-12-21T18:27:38.169Z,6.07
2017-12-21T18:30:04.177Z,5.60
2017-12-21T18:32:33.213Z,5.30
2017-12-21T18:34:59.133Z,5.15
2017-12-21T18:37:28.568Z,4.80
2017-12-21T18:39:54.491Z,4.50
2017-12-21T18:42:22.217Z,6.00
2017-12-21T18:44:48.077Z,4.03
2017-12-21T18:47:14.408Z,4.10
2017-12-21T18:49:40.372Z,4.03
2017-12-21T18:52:06.238Z,2.67
2017-12-21T18:54:35.294Z,3.23
2017-12-21T18:57:01.193Z,2.95
2017-12-21T18:59:28.133Z,4.03
2017-12-21T19:01:54.054Z,3.10
2017-12-21T19:04:22.858Z,7.53
2017-12-21T19:06:48.786Z,3.37
2017-12-21T19:09:18.226Z,3.23
2017-12-21T19:11:44.140Z,12.37
2017-12-21T19:14:13.157Z,13.77
2017-12-21T19:16:39.127Z,3.83
2017-12-21T19:19:08.368Z,3.70
2017-12-21T19:21:34.283Z,4.12
2017-12-21T19:24:01.902Z,4.30
2017-12-21T19:26:27.937Z,2.70
2017-12-21T19:28:53.851Z,2.92
2017-12-21T19:31:19.711Z,4.43
2017-12-21T19:33:45.565Z,4.80
2017-12-21T19:36:13.183Z,4.80
2017-12-21T19:38:39.109Z,2.42
2017-12-21T19:41:07.840Z,4.17
2017-12-21T19:43:33.721Z,4.28
2017-12-21T19:46:04.487Z,2.90
2017-12-21T19:48:30.394Z,1.90
2017-12-21T19:50:59.453Z,2.50
2017-12-21T19:53:25.382Z,1.33
2017-12-21T19:55:52.403Z,1.63
2017-12-21T19:58:18.296Z,1.48
2017-12-21T20:00:44.206Z,1.80
2017-12-21T20:03:10.114Z,2.53
2017-12-21T20:05:35.993Z,1.90
2017-12-21T20:08:05.561Z,2.30
2017-12-21T20:10:31.442Z,4.22
2017-12-21T20:13:00.524Z,6.20
2017-12-21T20:15:26.399Z,3.75
2017-12-21T20:17:53.467Z,3.37
2017-12-21T20:20:19.491Z,2.87
2017-12-21T20:22:49.221Z,2.17
2017-12-21T20:25:15.729Z,2.10
2017-12-21T20:27:42.878Z,4.05
2017-12-21T20:30:08.742Z,4.00
2017-12-21T20:32:37.837Z,3.00
2017-12-21T20:35:03.732Z,5.10
2017-12-21T20:37:29.611Z,5.97
2017-12-21T20:39:55.541Z,4.60
2017-12-21T20:42:21.420Z,3.60
2017-12-21T20:44:51.354Z,2.00
2017-12-21T20:47:18.083Z,3.80
2017-12-21T20:49:50.355Z,3.30
2017-12-21T20:52:16.262Z,1.62
2017-12-21T20:54:42.172Z,1.90
2017-12-21T20:57:08.159Z,1.83
2017-12-21T20:59:34.074Z,2.47
2017-12-21T21:01:59.995Z,2.57
2017-12-21T21:04:28.340Z,6.10
2017-12-21T21:06:54.295Z,11.02
2017-12-21T21:09:24.368Z,3.77
2017-12-21T21:11:56.899Z,3.70
2017-12-21T21:14:22.743Z,3.35
2017-12-21T21:16:48.763Z,7.07
2017-12-21T21:19:14.650Z,9.00
2017-12-21T21:21:40.580Z,6.50
2017-12-21T21:24:06.466Z,6.17
2017-12-21T21:26:32.354Z,3.97
2017-12-21T21:28:58.264Z,3.97
2017-12-21T21:31:24.188Z,3.90
2017-12-21T21:33:58.372Z,3.70
2017-12-21T21:36:24.226Z,3.17
2017-12-21T21:38:50.310Z,4.03
2017-12-21T21:41:16.306Z,2.60
2017-12-21T21:43:42.178Z,3.60
2017-12-21T21:46:08.381Z,5.10
2017-12-21T21:48:34.263Z,4.32
2017-12-21T21:51:00.184Z,5.73
2017-12-21T21:53:26.102Z,5.27
2017-12-21T21:55:51.975Z,4.80
2017-12-21T21:58:21.487Z,4.07
2017-12-21T22:00:47.440Z,3.95
2017-12-21T22:03:16.611Z,4.00
2017-12-21T22:05:42.527Z,3.83
2017-12-21T22:08:09.417Z,3.00
2017-12-21T22:10:35.334Z,3.05
2017-12-21T22:13:04.293Z,2.93
2017-12-21T22:15:33.418Z,2.70
2017-12-21T22:17:59.420Z,2.60
2017-12-21T22:20:25.376Z,2.20
2017-12-21T22:22:53.731Z,2.00
2017-12-21T22:25:19.577Z,1.35
2017-12-21T22:27:45.458Z,1.23
2017-12-21T22:30:11.315Z,2.03
2017-12-21T22:32:37.164Z,2.70
2017-12-21T22:35:06.719Z,8.47
2017-12-21T22:37:36.449Z,3.85
2017-12-21T22:40:02.335Z,2.87
2017-12-21T22:42:28.236Z,2.10
2017-12-21T22:44:54.985Z,1.90
2017-12-21T22:47:21.333Z,2.10
2017-12-21T22:49:50.263Z,2.15
2017-12-21T22:52:16.167Z,2.08
2017-12-21T22:54:45.630Z,2.40
2017-12-21T22:57:11.544Z,2.42
2017-12-21T22:59:40.568Z,2.60
2017-12-21T23:02:06.477Z,2.35
2017-12-21T23:04:32.366Z,2.20
2017-12-21T23:06:58.278Z,3.37
2017-12-21T23:09:24.201Z,3.03
2017-12-21T23:11:51.298Z,3.57
2017-12-21T23:14:17.179Z,2.80
2017-12-21T23:16:46.690Z,4.17
2017-12-21T23:19:16.271Z,2.30
2017-12-21T23:21:42.231Z,2.87
2017-12-21T23:24:08.080Z,2.10
2017-12-21T23:26:34.861Z,2.70
2017-12-21T23:29:00.764Z,2.60
2017-12-21T23:31:30.207Z,2.63
2017-12-21T23:33:56.256Z,3.60
2017-12-21T23:36:26.003Z,3.12
2017-12-21T23:38:51.841Z,2.33
2017-12-21T23:41:17.833Z,2.20
2017-12-21T23:43:43.720Z,2.15
2017-12-21T23:46:09.643Z,2.50
2017-12-21T23:48:36.461Z,3.00
2017-12-21T23:51:02.391Z,3.00
2017-12-21T23:53:32.257Z,3.60
2017-12-21T23:55:58.183Z,3.60
2017-12-21T23:58:27.228Z,4.10
